createdAt,value
2022-09-06T03:57:35.634Z,19.20
2022-09-06T04:00:38.278Z,19.20
2022-09-06T04:03:41.000Z,18.73
2022-09-06T04:06:43.111Z,18.77
2022-09-06T04:09:45.447Z,18.81
2022-09-06T04:12:47.504Z,18.89
2022-09-06T04:15:50.362Z,18.88
2022-09-06T04:18:52.438Z,18.96
2022-09-06T04:21:54.768Z,19.01
2022-09-06T04:24:56.838Z,19.08
2022-09-06T04:27:59.246Z,19.19
2022-09-06T04:31:04.923Z,19.14
2022-09-06T04:34:07.804Z,19.27
2022-09-06T04:37:09.955Z,19.24
2022-09-06T04:40:12.311Z,19.25
2022-09-06T04:43:14.421Z,19.24
2022-09-06T04:46:19.739Z,19.21
2022-09-06T04:49:23.606Z,19.22
2022-09-06T04:52:29.967Z,19.18
2022-09-06T04:55:33.879Z,19.28
2022-09-06T04:58:36.229Z,19.26
2022-09-06T05:01:38.298Z,19.23
2022-09-06T05:04:40.647Z,19.29
2022-09-06T05:07:42.720Z,19.25
2022-09-06T05:10:45.089Z,19.35
2022-09-06T05:13:47.714Z,19.30
2022-09-06T05:16:53.221Z,19.30
2022-09-06T05:19:55.353Z,19.33
2022-09-06T05:22:57.691Z,19.39
2022-09-06T05:25:59.754Z,19.38
2022-09-06T05:29:02.115Z,19.42
2022-09-06T05:32:04.418Z,19.43
2022-09-06T05:35:07.011Z,19.40
2022-09-06T05:38:09.090Z,19.52
2022-09-06T05:41:11.601Z,19.41
2022-09-06T05:44:14.418Z,19.42
2022-09-06T05:47:16.749Z,19.39
2022-09-06T05:50:18.834Z,19.45
2022-09-06T05:53:21.150Z,19.45
2022-09-06T05:56:24.577Z,19.62
2022-09-06T05:59:26.642Z,19.66
2022-09-06T06:02:29.086Z,19.80
2022-09-06T06:05:31.483Z,19.92
2022-09-06T06:08:34.994Z,20.04
2022-09-06T06:11:37.581Z,20.08
2022-09-06T06:14:39.711Z,20.15
2022-09-06T06:17:42.046Z,20.22
2022-09-06T06:20:44.102Z,20.32
2022-09-06T06:23:49.084Z,20.35
2022-09-06T06:26:51.324Z,20.42
2022-09-06T06:29:53.883Z,20.49
2022-09-06T06:32:56.325Z,20.59
2022-09-06T06:36:01.538Z,20.51
2022-09-06T06:39:07.371Z,20.65
2022-09-06T06:42:12.134Z,20.63
2022-09-06T06:45:16.166Z,20.69
2022-09-06T06:48:18.683Z,20.56
2022-09-06T06:51:21.998Z,20.67
2022-09-06T06:54:24.386Z,20.69
2022-09-06T06:57:26.734Z,20.68
2022-09-06T07:00:29.186Z,20.65
2022-09-06T07:03:31.278Z,20.83
2022-09-06T07:13:33.832Z,20.96
2022-09-06T07:16:35.969Z,20.95
2022-09-06T07:26:26.992Z,21.08
2022-09-06T07:29:29.050Z,21.07
2022-09-06T07:32:34.359Z,21.02
2022-09-06T07:35:36.417Z,20.99
2022-09-06T07:38:38.975Z,21.15
2022-09-06T07:41:42.449Z,21.18
2022-09-06T07:44:44.865Z,21.32
2022-09-06T07:47:57.356Z,21.43
2022-09-06T07:51:20.360Z,21.48
2022-09-06T07:54:31.145Z,21.49
2022-09-06T07:57:33.885Z,21.59
2022-09-06T08:00:36.297Z,21.62
2022-09-06T08:03:38.722Z,21.66
2022-09-06T08:10:06.209Z,21.67
2022-09-06T08:13:08.278Z,21.60
2022-09-06T08:16:12.426Z,21.68
2022-09-06T08:19:14.769Z,21.72
2022-09-06T08:22:17.156Z,21.80
2022-09-06T08:25:19.241Z,21.84
2022-09-06T08:28:24.460Z,21.80
2022-09-06T08:31:30.040Z,21.89
2022-09-06T08:34:32.457Z,21.85
2022-09-06T08:37:34.619Z,21.94
2022-09-06T08:40:38.674Z,21.98
2022-09-06T08:47:20.386Z,22.05
2022-09-06T08:50:24.950Z,22.15
2022-09-06T08:53:27.306Z,22.18
2022-09-06T08:56:37.763Z,22.26
2022-09-06T08:59:42.898Z,22.32
2022-09-06T09:02:49.338Z,22.35
2022-09-06T09:05:53.794Z,22.45
2022-09-06T09:09:06.780Z,22.51
2022-09-06T09:12:15.346Z,22.65
2022-09-06T09:15:19.622Z,22.69
2022-09-06T09:18:26.922Z,22.77
2022-09-06T09:21:32.872Z,22.81
2022-09-06T09:24:36.892Z,22.86
2022-09-06T09:27:39.647Z,22.84
2022-09-06T09:30:53.625Z,22.83
2022-09-06T09:33:56.183Z,22.84
2022-09-06T09:41:03.342Z,22.98
2022-09-06T09:44:16.282Z,22.94
2022-09-06T10:07:24.855Z,23.36
2022-09-06T10:10:31.041Z,23.32
2022-09-06T10:13:34.242Z,23.36
2022-09-06T10:16:44.905Z,23.43
2022-09-06T10:19:48.705Z,23.48
2022-09-06T10:22:59.821Z,23.52
2022-09-06T10:26:22.452Z,23.60
2022-09-06T10:29:50.145Z,23.72
2022-09-06T10:33:01.789Z,23.62
2022-09-06T10:36:04.766Z,23.70
2022-09-06T10:39:30.703Z,23.72
2022-09-06T10:42:45.454Z,23.75
2022-09-06T10:46:02.279Z,23.82
2022-09-06T10:49:09.726Z,23.91
2022-09-06T10:52:20.063Z,23.89
2022-09-06T10:55:22.806Z,23.91
2022-09-06T11:02:05.872Z,24.08
2022-09-06T11:08:47.758Z,24.13
2022-09-06T11:12:21.339Z,24.19
2022-09-06T11:15:26.857Z,24.27
2022-09-06T11:19:05.273Z,24.21
2022-09-06T11:22:34.692Z,24.23
2022-09-06T11:25:55.357Z,24.28
2022-09-06T11:29:04.237Z,24.31
2022-09-06T11:32:44.726Z,24.37
2022-09-06T11:35:46.905Z,24.48
2022-09-06T11:39:01.233Z,24.51
2022-09-06T11:42:29.876Z,24.57
2022-09-06T11:45:51.007Z,24.65
2022-09-06T11:49:07.964Z,24.76
2022-09-06T11:52:52.335Z,24.74
2022-09-06T11:56:00.111Z,24.83
2022-09-06T11:59:18.660Z,24.89
2022-09-06T12:02:36.288Z,24.92
2022-09-06T12:06:21.040Z,24.99
2022-09-06T12:09:30.609Z,25.06
2022-09-06T12:12:39.799Z,24.99
2022-09-06T12:15:51.847Z,25.05
2022-09-06T12:18:56.330Z,25.00
2022-09-06T12:21:58.418Z,25.02
2022-09-06T12:25:03.542Z,25.02
2022-09-06T12:28:09.586Z,25.04
2022-09-06T12:31:39.559Z,25.05
2022-09-06T12:34:45.113Z,25.04
2022-09-06T12:38:06.852Z,25.04
2022-09-06T12:41:09.015Z,25.07
2022-09-06T12:44:13.260Z,25.11
2022-09-06T12:47:27.350Z,25.12
2022-09-06T12:50:31.467Z,25.14
2022-09-06T12:53:34.770Z,25.08
2022-09-06T12:56:37.233Z,25.13
2022-09-06T12:59:47.822Z,25.15
2022-09-06T13:03:21.436Z,25.12
2022-09-06T13:06:27.376Z,25.16
2022-09-06T13:09:31.321Z,25.21
2022-09-06T13:12:42.725Z,25.17
2022-09-06T13:15:46.910Z,25.10
2022-09-06T13:18:49.390Z,25.05
2022-09-06T13:21:51.934Z,25.13
2022-09-06T13:24:56.508Z,25.08
2022-09-06T13:28:01.425Z,25.04
2022-09-06T13:31:14.247Z,25.01
2022-09-06T13:34:22.638Z,24.98
2022-09-06T13:37:27.397Z,24.91
2022-09-06T13:41:06.735Z,24.90
2022-09-06T13:44:14.692Z,24.92
2022-09-06T13:47:17.140Z,24.90
2022-09-06T13:50:20.674Z,24.93
2022-09-06T13:53:25.081Z,24.96
2022-09-06T13:56:27.554Z,24.92
2022-09-06T13:59:31.426Z,24.91
2022-09-06T14:02:33.566Z,24.96
2022-09-06T14:05:38.916Z,24.96
2022-09-06T14:09:05.870Z,24.91
2022-09-06T14:12:06.841Z,24.91
2022-09-06T14:15:09.921Z,24.94
2022-09-06T14:18:14.597Z,24.88
2022-09-06T14:21:16.831Z,24.91
2022-09-06T14:24:19.200Z,24.93
2022-09-06T14:27:21.894Z,24.80
2022-09-06T14:30:24.423Z,24.80
2022-09-06T14:33:26.500Z,24.70
2022-09-06T14:36:31.072Z,24.69
2022-09-06T14:39:33.198Z,24.71
2022-09-06T14:42:35.542Z,24.69
2022-09-06T14:45:37.657Z,24.71
2022-09-06T14:48:42.423Z,24.69
2022-09-06T14:51:45.862Z,24.66
2022-09-06T14:54:48.201Z,24.63
2022-09-06T14:57:50.472Z,24.66
2022-09-06T15:00:52.917Z,24.63
2022-09-06T15:03:57.569Z,24.60
2022-09-06T15:07:00.764Z,24.54
